createdAt,value
2022-09-14T00:01:59.475Z,15.70
2022-09-14T00:04:51.760Z,15.70
2022-09-14T00:07:43.900Z,15.70
2022-09-14T00:10:42.679Z,15.60
2022-09-14T00:13:35.928Z,15.60
2022-09-14T00:16:33.844Z,15.50
2022-09-14T00:19:27.703Z,15.60
2022-09-14T00:22:20.248Z,15.60
2022-09-14T00:25:12.364Z,15.60
2022-09-14T00:28:04.492Z,15.40
2022-09-14T00:30:56.593Z,15.40
2022-09-14T00:33:50.583Z,15.40
2022-09-14T00:36:46.321Z,15.30
2022-09-14T00:39:38.503Z,15.30
2022-09-14T00:42:30.839Z,15.30
2022-09-14T00:45:24.983Z,15.20
2022-09-14T00:48:17.563Z,15.20
2022-09-14T00:51:09.695Z,15.10
2022-09-14T00:54:03.627Z,15.20
2022-09-14T00:56:59.370Z,15.10
2022-09-14T00:59:53.107Z,15.20
2022-09-14T01:02:45.534Z,15.10
2022-09-14T01:05:47.025Z,15.10
2022-09-14T01:08:51.051Z,15.20
2022-09-14T01:12:09.518Z,15.10
2022-09-14T01:15:07.848Z,15.10
2022-09-14T01:18:41.070Z,15.10
2022-09-14T01:21:38.210Z,15.10
2022-09-14T01:24:53.528Z,14.90
2022-09-14T01:27:46.641Z,14.90
2022-09-14T01:30:42.185Z,14.90
2022-09-14T01:33:41.841Z,14.80
2022-09-14T01:36:38.295Z,14.80
2022-09-14T01:39:34.103Z,14.70
2022-09-14T01:42:28.001Z,14.70
2022-09-14T01:45:22.580Z,14.70
2022-09-14T01:48:18.123Z,14.70
2022-09-14T01:51:22.508Z,14.60
2022-09-14T01:54:37.041Z,14.60
2022-09-14T01:58:33.318Z,14.40
2022-09-14T02:01:31.370Z,14.30
2022-09-14T02:04:45.014Z,14.40
2022-09-14T02:07:38.261Z,14.30
2022-09-14T02:10:30.962Z,14.30
2022-09-14T02:13:23.933Z,14.30
2022-09-14T02:16:16.165Z,14.20
2022-09-14T02:19:08.398Z,14.20
2022-09-14T02:22:00.578Z,14.30
2022-09-14T02:24:53.559Z,14.30
2022-09-14T02:27:47.457Z,14.30
2022-09-14T02:31:04.055Z,14.40
2022-09-14T02:34:15.891Z,14.40
2022-09-14T02:37:18.152Z,14.50
2022-09-14T02:40:29.119Z,14.40
2022-09-14T02:43:42.898Z,14.40
2022-09-14T02:46:58.533Z,14.30
2022-09-14T02:50:07.927Z,14.30
2022-09-14T02:53:15.780Z,14.30
2022-09-14T02:56:10.084Z,14.40
2022-09-14T02:59:02.210Z,14.50
2022-09-14T03:01:54.574Z,14.30
2022-09-14T03:04:46.765Z,14.30
2022-09-14T03:07:38.955Z,14.40
2022-09-14T03:10:32.210Z,14.30
2022-09-14T03:13:24.628Z,14.40
2022-09-14T03:16:18.245Z,14.40
2022-09-14T03:19:12.270Z,14.30
2022-09-14T03:22:04.423Z,14.30
2022-09-14T03:24:56.528Z,14.30
2022-09-14T03:27:54.955Z,14.40
2022-09-14T03:30:47.861Z,14.30
2022-09-14T03:33:40.479Z,14.40
2022-09-14T03:36:32.718Z,14.40
2022-09-14T03:39:24.928Z,14.40
2022-09-14T03:42:17.029Z,14.40
2022-09-14T03:45:09.809Z,14.50
2022-09-14T03:48:02.134Z,14.60
2022-09-14T03:50:54.256Z,14.70
2022-09-14T03:53:46.435Z,14.60
2022-09-14T03:56:38.582Z,14.70
2022-09-14T03:59:30.728Z,14.60
2022-09-14T04:02:22.879Z,14.60
2022-09-14T04:05:17.712Z,14.60
2022-09-14T04:08:13.283Z,14.60
2022-09-14T04:11:18.964Z,14.60
2022-09-14T04:14:11.699Z,14.60
2022-09-14T04:17:04.338Z,14.60
2022-09-14T04:19:56.509Z,14.60
2022-09-14T04:22:48.669Z,14.60
2022-09-14T04:25:40.823Z,14.60
2022-09-14T04:28:32.940Z,14.60
2022-09-14T04:31:25.474Z,14.60
2022-09-14T04:34:17.853Z,14.70
2022-09-14T04:37:09.962Z,14.70
2022-09-14T04:40:02.659Z,14.70
2022-09-14T04:42:54.848Z,14.70
2022-09-14T04:45:47.114Z,14.70
2022-09-14T04:48:39.540Z,14.80
2022-09-14T04:51:33.938Z,14.80
2022-09-14T04:54:26.073Z,14.90
2022-09-14T04:57:18.174Z,15.00
2022-09-14T05:00:10.795Z,15.00
2022-09-14T05:03:04.637Z,15.20
2022-09-14T05:06:01.361Z,15.20
2022-09-14T05:08:54.471Z,15.20
2022-09-14T05:11:46.705Z,15.40
2022-09-14T05:14:38.947Z,15.50
2022-09-14T05:17:35.327Z,15.60
2022-09-14T05:20:27.514Z,15.70
2022-09-14T05:23:19.644Z,15.60
2022-09-14T05:26:12.731Z,15.50
2022-09-14T05:29:04.883Z,15.60
2022-09-14T05:31:57.053Z,15.60
2022-09-14T05:34:49.170Z,15.40
2022-09-14T05:37:41.289Z,15.30
2022-09-14T05:40:33.585Z,15.20
2022-09-14T05:43:26.249Z,15.30
2022-09-14T05:46:22.285Z,15.40
2022-09-14T05:49:14.513Z,15.50
2022-09-14T05:52:06.692Z,16.50
2022-09-14T05:54:58.822Z,18.20
2022-09-14T05:57:51.529Z,19.30
2022-09-14T06:00:43.891Z,19.40
2022-09-14T06:03:36.350Z,18.90
2022-09-14T06:06:30.216Z,18.60
2022-09-14T06:09:22.468Z,18.30
2022-09-14T06:12:14.762Z,18.20
2022-09-14T06:15:07.419Z,17.90
2022-09-14T06:17:59.672Z,17.60
2022-09-14T06:20:52.536Z,17.40
2022-09-14T06:23:45.202Z,17.40
2022-09-14T06:26:37.396Z,17.30
2022-09-14T06:29:29.515Z,17.30
2022-09-14T06:32:23.264Z,17.30
2022-09-14T06:35:15.504Z,17.20
2022-09-14T06:38:07.942Z,17.20
2022-09-14T06:41:02.958Z,17.10
2022-09-14T06:43:57.642Z,17.10
2022-09-14T06:46:49.794Z,17.10
2022-09-14T06:49:41.935Z,17.00
2022-09-14T06:52:36.769Z,16.80
2022-09-14T06:55:29.913Z,16.60
2022-09-14T06:58:22.041Z,16.50
2022-09-14T07:01:16.198Z,16.50
2022-09-14T07:04:09.042Z,16.40
2022-09-14T07:07:01.173Z,16.20
2022-09-14T07:09:53.371Z,16.20
2022-09-14T07:12:45.541Z,16.20
2022-09-14T07:15:37.659Z,16.20
2022-09-14T07:18:32.819Z,16.20
2022-09-14T07:21:25.748Z,16.10
2022-09-14T07:24:17.967Z,16.00
2022-09-14T07:27:10.146Z,16.00
2022-09-14T07:30:02.270Z,16.00
2022-09-14T07:32:54.908Z,16.10
2022-09-14T07:35:47.063Z,16.20
2022-09-14T07:38:52.038Z,16.10
2022-09-14T07:41:45.323Z,16.10
2022-09-14T07:44:37.486Z,16.00
2022-09-14T07:47:29.903Z,16.10
2022-09-14T07:50:22.122Z,16.10
2022-09-14T07:53:14.763Z,16.10
2022-09-14T07:56:10.122Z,16.00
2022-09-14T07:59:30.829Z,16.00
2022-09-14T08:02:15.991Z,16.10
2022-09-14T08:05:08.534Z,16.10
2022-09-14T08:08:00.641Z,16.10
2022-09-14T08:10:52.775Z,16.10
2022-09-14T08:13:52.946Z,16.00
2022-09-14T08:16:45.246Z,15.80
2022-09-14T08:19:37.648Z,15.80
2022-09-14T08:22:29.800Z,15.90
2022-09-14T08:25:21.918Z,16.00
2022-09-14T08:28:14.143Z,16.00
2022-09-14T08:31:27.358Z,16.20
2022-09-14T08:34:20.338Z,16.20
2022-09-14T08:37:13.101Z,16.30
2022-09-14T08:40:05.602Z,16.50
2022-09-14T08:43:02.475Z,16.70
2022-09-14T08:46:02.073Z,16.90
2022-09-14T08:48:54.537Z,17.10
2022-09-14T08:51:46.717Z,17.40
2022-09-14T08:54:39.194Z,17.80
2022-09-14T08:57:46.362Z,18.00
2022-09-14T09:00:51.827Z,18.10
2022-09-14T09:04:12.163Z,18.10
2022-09-14T09:07:07.038Z,18.00
2022-09-14T09:09:59.555Z,18.30
2022-09-14T09:12:59.130Z,18.50
2022-09-14T09:15:55.219Z,18.70
2022-09-14T09:19:01.488Z,18.80
2022-09-14T09:21:54.208Z,18.80
2022-09-14T09:24:51.245Z,19.00
2022-09-14T09:27:43.389Z,19.30
2022-09-14T09:30:35.950Z,19.60
2022-09-14T09:33:28.445Z,19.40
2022-09-14T09:36:20.657Z,19.70
2022-09-14T09:39:13.898Z,20.20
2022-09-14T09:42:16.029Z,20.50
2022-09-14T09:45:09.009Z,20.90
2022-09-14T09:48:09.976Z,21.00
2022-09-14T09:51:08.041Z,21.30
2022-09-14T09:54:08.480Z,21.50
2022-09-14T09:57:07.345Z,21.50
2022-09-14T10:00:09.603Z,21.50
2022-09-14T10:03:27.989Z,21.60
2022-09-14T10:06:20.159Z,21.30
2022-09-14T10:09:24.021Z,21.50
2022-09-14T10:12:16.754Z,21.50
2022-09-14T10:15:21.108Z,21.30
2022-09-14T10:18:13.563Z,21.10
2022-09-14T10:21:08.264Z,21.00
2022-09-14T10:24:19.310Z,20.90
2022-09-14T10:27:38.001Z,20.90
2022-09-14T10:30:55.839Z,20.80
2022-09-14T10:33:55.920Z,20.80
2022-09-14T10:37:05.087Z,20.90
2022-09-14T10:40:24.538Z,20.90
2022-09-14T10:43:25.794Z,20.90
2022-09-14T10:46:21.967Z,20.70
2022-09-14T10:49:26.184Z,20.80
2022-09-14T10:52:58.700Z,21.10
2022-09-14T10:56:05.924Z,21.30
2022-09-14T10:59:48.132Z,21.20
2022-09-14T11:03:04.609Z,21.00
2022-09-14T11:05:56.837Z,20.90
2022-09-14T11:09:17.339Z,20.80
2022-09-14T11:12:26.806Z,20.80
2022-09-14T11:15:32.177Z,20.70
2022-09-14T11:18:42.933Z,20.50
2022-09-14T11:21:50.285Z,20.30
2022-09-14T11:25:05.923Z,20.30
2022-09-14T11:28:02.338Z,20.40
2022-09-14T11:31:26.703Z,20.30
2022-09-14T11:34:33.219Z,20.40
2022-09-14T11:37:48.567Z,20.40
2022-09-14T11:41:07.309Z,20.40
2022-09-14T11:44:10.761Z,20.40
2022-09-14T11:47:13.639Z,20.40
2022-09-14T11:50:27.593Z,20.50
2022-09-14T11:53:21.564Z,20.60
2022-09-14T11:56:34.256Z,20.60
2022-09-14T11:59:41.411Z,20.70
2022-09-14T12:02:36.955Z,20.70
2022-09-14T12:05:32.718Z,20.70
2022-09-14T12:08:27.976Z,20.80
2022-09-14T12:11:26.400Z,20.90
2022-09-14T12:14:24.414Z,21.10
2022-09-14T12:17:40.550Z,21.10
2022-09-14T12:20:45.374Z,21.20
2022-09-14T12:23:42.373Z,21.30
2022-09-14T12:26:35.160Z,21.20
2022-09-14T12:29:34.759Z,21.10
2022-09-14T12:32:43.697Z,21.30
2022-09-14T12:35:45.187Z,21.40
2022-09-14T12:38:37.342Z,21.60
2022-09-14T12:41:35.361Z,21.90
2022-09-14T12:44:43.320Z,21.90
2022-09-14T12:47:35.781Z,21.90
2022-09-14T12:50:32.369Z,21.90
2022-09-14T12:53:31.754Z,22.10
2022-09-14T12:56:33.015Z,22.40
2022-09-14T12:59:33.712Z,22.80
2022-09-14T13:02:28.888Z,23.10
2022-09-14T13:05:24.746Z,23.30
2022-09-14T13:08:23.400Z,23.50
2022-09-14T13:11:22.749Z,23.60
2022-09-14T13:14:19.518Z,23.70
2022-09-14T13:17:14.619Z,23.80
2022-09-14T13:20:18.343Z,23.80
2022-09-14T13:23:21.178Z,23.80
2022-09-14T13:26:28.854Z,23.70
2022-09-14T13:29:22.088Z,23.70
2022-09-14T13:32:20.174Z,23.70
2022-09-14T13:35:32.512Z,23.80
2022-09-14T13:38:32.300Z,23.80
2022-09-14T13:41:24.564Z,23.90
2022-09-14T13:44:17.259Z,24.00
2022-09-14T13:47:13.537Z,23.90
2022-09-14T13:50:06.700Z,23.50
2022-09-14T13:53:03.861Z,23.30
2022-09-14T13:55:56.518Z,23.20
2022-09-14T13:58:50.925Z,23.20
2022-09-14T14:01:58.440Z,23.10
2022-09-14T14:04:50.750Z,22.90
2022-09-14T14:07:45.857Z,22.80
2022-09-14T14:10:46.026Z,22.70
2022-09-14T14:13:38.630Z,22.80
2022-09-14T14:16:30.885Z,22.70
2022-09-14T14:19:31.054Z,22.70
2022-09-14T14:22:31.399Z,22.80
2022-09-14T14:25:44.809Z,22.80
2022-09-14T14:28:39.698Z,22.70
2022-09-14T14:31:31.909Z,22.60
2022-09-14T14:34:29.217Z,22.50
2022-09-14T14:37:22.175Z,22.40
2022-09-14T14:40:15.387Z,22.60
2022-09-14T14:43:08.379Z,22.70
2022-09-14T14:46:01.836Z,22.80
2022-09-14T14:48:54.072Z,22.90
2022-09-14T14:51:46.690Z,22.80
2022-09-14T14:54:41.066Z,22.70
2022-09-14T14:57:33.191Z,22.60
2022-09-14T15:00:25.389Z,22.40
2022-09-14T15:03:19.163Z,22.10
2022-09-14T15:06:20.124Z,22.00
2022-09-14T15:09:24.227Z,21.80
2022-09-14T15:12:16.642Z,21.80
2022-09-14T15:15:17.792Z,21.70
2022-09-14T15:18:10.495Z,21.70
2022-09-14T15:21:02.859Z,21.70
2022-09-14T15:23:55.141Z,21.70
2022-09-14T15:26:47.336Z,21.70
2022-09-14T15:29:39.600Z,21.80
2022-09-14T15:32:31.950Z,21.90
2022-09-14T15:35:24.464Z,21.90
2022-09-14T15:38:16.605Z,21.90
2022-09-14T15:41:12.418Z,21.90
2022-09-14T15:44:05.459Z,21.80
2022-09-14T15:46:58.301Z,21.80
2022-09-14T15:49:52.736Z,21.80
2022-09-14T15:52:45.152Z,21.80
2022-09-14T15:55:40.524Z,21.80
2022-09-14T15:58:32.679Z,21.90
2022-09-14T16:01:24.933Z,22.10
2022-09-14T16:04:17.639Z,22.10
2022-09-14T16:07:10.270Z,22.10
2022-09-14T16:10:02.405Z,22.20
2022-09-14T16:12:56.210Z,22.20
2022-09-14T16:15:48.338Z,22.20
2022-09-14T16:18:41.318Z,22.10
2022-09-14T16:21:33.573Z,22.10
2022-09-14T16:24:26.441Z,22.10
2022-09-14T16:27:19.009Z,22.10
2022-09-14T16:30:11.535Z,22.10
2022-09-14T16:33:03.777Z,22.00
2022-09-14T16:36:09.861Z,22.00
2022-09-14T16:39:09.923Z,22.00
2022-09-14T16:42:02.506Z,21.80
2022-09-14T16:44:54.650Z,21.70
2022-09-14T16:47:46.755Z,21.60
2022-09-14T16:50:38.870Z,21.40
2022-09-14T16:53:33.159Z,21.40
2022-09-14T16:56:27.861Z,21.30
2022-09-14T16:59:20.620Z,21.40
2022-09-14T17:02:12.947Z,21.30
2022-09-14T17:05:05.729Z,21.30
2022-09-14T17:07:57.884Z,21.20
2022-09-14T17:10:50.232Z,21.00
2022-09-14T17:13:44.488Z,20.90
2022-09-14T17:16:36.820Z,20.90
2022-09-14T17:19:29.322Z,21.00
2022-09-14T17:22:21.435Z,20.90
2022-09-14T17:25:16.838Z,20.90
2022-09-14T17:28:09.234Z,20.90
2022-09-14T17:31:03.320Z,20.90
2022-09-14T17:33:57.640Z,20.80
2022-09-14T17:36:49.793Z,20.60
2022-09-14T17:39:41.915Z,20.50
2022-09-14T17:42:34.047Z,20.40
2022-09-14T17:45:26.232Z,20.40
2022-09-14T17:48:18.452Z,20.20
2022-09-14T17:51:12.650Z,20.10
2022-09-14T17:54:04.973Z,20.10
2022-09-14T17:56:57.125Z,20.10
2022-09-14T17:59:49.244Z,20.10
2022-09-14T18:02:41.624Z,20.10
2022-09-14T18:05:33.796Z,19.90
2022-09-14T18:08:25.966Z,19.70
2022-09-14T18:11:18.093Z,19.70
2022-09-14T18:14:12.842Z,19.70
2022-09-14T18:17:05.627Z,19.70
2022-09-14T18:19:58.638Z,19.60
2022-09-14T18:22:50.768Z,19.60
2022-09-14T18:25:43.307Z,19.70
2022-09-14T18:28:36.144Z,19.60
2022-09-14T18:31:28.345Z,19.50
2022-09-14T18:34:21.399Z,19.50
2022-09-14T18:37:13.535Z,19.40
2022-09-14T18:40:06.120Z,19.30
2022-09-14T18:42:58.273Z,19.30
2022-09-14T18:45:50.393Z,19.20
2022-09-14T18:48:45.481Z,19.20
2022-09-14T18:51:37.653Z,19.20
2022-09-14T18:54:29.758Z,19.10
2022-09-14T18:57:22.306Z,19.10
2022-09-14T19:00:18.629Z,19.10
2022-09-14T19:03:11.608Z,19.00
2022-09-14T19:06:07.321Z,19.00
2022-09-14T19:08:59.512Z,19.00
2022-09-14T19:11:51.753Z,18.90
2022-09-14T19:14:43.871Z,18.90
2022-09-14T19:17:36.007Z,18.80
2022-09-14T19:20:43.097Z,18.60
2022-09-14T19:23:40.961Z,18.50
2022-09-14T19:26:43.914Z,18.50
2022-09-14T19:29:37.177Z,18.50
2022-09-14T19:32:29.736Z,18.50
2022-09-14T19:35:23.411Z,18.60
2022-09-14T19:38:15.561Z,18.50
2022-09-14T19:41:08.428Z,18.50
2022-09-14T19:44:01.707Z,18.50
2022-09-14T19:46:53.874Z,18.50
2022-09-14T19:49:46.012Z,18.60
2022-09-14T19:52:38.213Z,18.60
2022-09-14T19:55:31.346Z,18.60
2022-09-14T19:58:26.147Z,18.60
2022-09-14T20:01:20.501Z,18.70
2022-09-14T20:04:13.299Z,18.70
2022-09-14T20:07:07.539Z,18.70
2022-09-14T20:09:59.697Z,18.60
2022-09-14T20:12:52.654Z,18.60
2022-09-14T20:15:44.877Z,18.60
2022-09-14T20:18:37.008Z,18.60
2022-09-14T20:21:29.352Z,18.70
2022-09-14T20:24:26.760Z,18.70
2022-09-14T20:27:18.863Z,18.70
2022-09-14T20:30:11.587Z,18.70
2022-09-14T20:33:03.737Z,18.70
2022-09-14T20:36:07.228Z,18.60
2022-09-14T20:38:59.929Z,18.60
2022-09-14T20:41:52.392Z,18.60
2022-09-14T20:44:44.531Z,18.60
2022-09-14T20:47:36.647Z,18.60
2022-09-14T20:50:28.778Z,18.70
2022-09-14T20:53:21.612Z,18.50
2022-09-14T20:56:16.203Z,18.60
2022-09-14T20:59:11.512Z,18.60
2022-09-14T21:02:05.641Z,18.60
2022-09-14T21:04:58.047Z,18.50
2022-09-14T21:11:13.188Z,18.50
2022-09-14T21:11:25.831Z,18.50
2022-09-14T21:14:19.325Z,18.40
2022-09-14T21:17:11.471Z,18.50
2022-09-14T21:20:04.624Z,18.50
2022-09-14T21:22:56.892Z,18.30
2022-09-14T21:25:56.716Z,18.40
2022-09-14T21:28:49.349Z,18.40
2022-09-14T21:31:42.158Z,18.40
2022-09-14T21:34:34.429Z,18.50
2022-09-14T21:37:27.785Z,18.50
2022-09-14T21:40:21.196Z,18.50
2022-09-14T21:43:13.426Z,18.60
2022-09-14T21:46:06.428Z,18.60
2022-09-14T21:48:58.635Z,18.80
2022-09-14T21:51:50.895Z,18.80
2022-09-14T21:54:43.050Z,18.80
2022-09-14T21:57:35.203Z,18.90
2022-09-14T22:00:31.001Z,19.10
2022-09-14T22:03:24.066Z,19.10
2022-09-14T22:06:19.267Z,19.20
2022-09-14T22:09:12.877Z,19.40
2022-09-14T22:12:05.176Z,19.30
2022-09-14T22:14:57.286Z,19.20
2022-09-14T22:17:49.826Z,19.30
2022-09-14T22:20:42.290Z,19.30
2022-09-14T22:23:35.579Z,19.40
2022-09-14T22:26:30.126Z,19.40
2022-09-14T22:29:22.588Z,19.40
2022-09-14T22:32:14.940Z,19.30
2022-09-14T22:35:07.681Z,19.30
2022-09-14T22:38:01.540Z,19.30
2022-09-14T22:40:58.691Z,19.40
2022-09-14T22:43:51.056Z,19.60
2022-09-14T22:46:44.099Z,19.60
2022-09-14T22:49:36.646Z,19.80
2022-09-14T22:52:29.155Z,19.90
2022-09-14T22:55:21.513Z,20.00
2022-09-14T22:58:15.675Z,20.00
2022-09-14T23:01:14.083Z,20.00
2022-09-14T23:04:09.104Z,20.00
2022-09-14T23:07:01.264Z,20.00
2022-09-14T23:09:53.368Z,19.90
2022-09-14T23:12:45.496Z,19.90
2022-09-14T23:15:39.085Z,19.80
2022-09-14T23:18:31.252Z,19.70
2022-09-14T23:21:24.635Z,19.70
2022-09-14T23:24:16.854Z,19.60
2022-09-14T23:27:09.037Z,19.70
2022-09-14T23:30:01.202Z,19.70
2022-09-14T23:32:53.853Z,19.70
2022-09-14T23:35:49.893Z,19.80
2022-09-14T23:38:42.238Z,19.70
2022-09-14T23:41:34.650Z,19.80
2022-09-14T23:44:26.785Z,19.80
2022-09-14T23:47:18.955Z,19.70
2022-09-14T23:50:11.168Z,19.70
2022-09-14T23:53:03.337Z,19.70
2022-09-14T23:55:56.422Z,19.70
2022-09-14T23:58:48.882Z,19.70
